Time;durP1;ratioP1;P1;durP2;ratioP2;P2;SDS_P1;SDS_P2;PMS_P1;PMS_P2;Temp;Humidity;BMP_temperature;BMP_pressure;BME280_temperature;BME280_humidity;BME280_pressure;Samples;Min_cycle;Max_cycle;Signal;HPM_P1;HPM_P2
2022/08/24 00:01:17;;;;;;;10.08;6.10;;;;;;;23.81;58.48;99943.59;1673964;84;21568;-59
2022/08/24 00:03:44;;;;;;;6.30;5.50;;;;;;;23.77;58.53;99947.53;1671671;85;21585;-59
2022/08/24 00:06:16;;;;;;;8.63;5.85;;;;;;;23.68;59.30;99958.16;1669152;83;22030;-59
2022/08/24 00:08:43;;;;;;;8.93;5.35;;;;;;;23.71;58.84;99959.69;1664220;84;21520;-59
2022/08/24 00:11:10;;;;;;;7.58;5.92;;;;;;;23.70;59.24;99948.63;1625866;86;21214;-59
2022/08/24 00:13:37;;;;;;;12.40;5.43;;;;;;;23.70;58.78;99952.14;1624768;86;21616;-59
2022/08/24 00:16:06;;;;;;;11.25;5.72;;;;;;;23.74;59.01;99960.77;1626204;87;21572;-59
2022/08/24 00:18:32;;;;;;;9.23;5.58;;;;;;;23.74;58.83;99958.08;1622909;87;21826;-59
2022/08/24 00:21:00;;;;;;;6.10;5.53;;;;;;;23.66;58.90;99958.80;1616756;86;21564;-59
2022/08/24 00:23:28;;;;;;;9.63;5.83;;;;;;;23.59;59.26;99958.16;1631171;86;21582;-59
2022/08/24 00:25:54;;;;;;;9.63;5.92;;;;;;;23.59;59.26;99958.16;1625010;86;21478;-59
2022/08/24 00:28:21;;;;;;;7.30;5.75;;;;;;;23.59;59.28;99964.37;1622751;86;21666;-59
2022/08/24 00:30:48;;;;;;;13.32;6.40;;;;;;;23.55;59.70;99966.15;1609423;88;21907;-59
2022/08/24 00:33:14;;;;;;;8.73;5.70;;;;;;;23.53;59.70;99971.66;1638246;86;21566;-59
2022/08/24 00:35:41;;;;;;;18.75;6.33;;;;;;;23.53;59.70;99971.66;1634983;86;21606;-60
2022/08/24 00:38:08;;;;;;;10.30;5.73;;;;;;;23.59;59.29;99979.63;1601529;88;21082;-59
2022/08/24 00:40:40;;;;;;;11.55;5.78;;;;;;;23.50;59.49;99981.31;1646503;86;21542;-60
2022/08/24 00:43:08;;;;;;;13.10;6.22;;;;;;;23.56;59.03;99974.53;1635297;86;21798;-59
2022/08/24 00:45:47;;;;;;;9.98;6.03;;;;;;;23.51;59.03;99974.47;1638137;86;21542;-61
2022/08/24 00:48:19;;;;;;;9.73;5.67;;;;;;;23.45;59.21;99970.14;1640101;85;21044;-60
2022/08/24 00:50:56;;;;;;;9.38;5.90;;;;;;;23.38;59.62;99973.06;1633357;86;21033;-60
2022/08/24 00:53:33;;;;;;;8.50;5.85;;;;;;;23.37;59.68;99974.03;1625958;86;21549;-58
2022/08/24 00:56:05;;;;;;;11.75;5.75;;;;;;;23.20;59.98;99971.55;1638270;85;21487;-59
2022/08/24 00:58:37;;;;;;;9.93;5.45;;;;;;;23.20;59.98;99971.55;1631974;85;21447;-59
2022/08/24 01:01:05;;;;;;;9.88;5.40;;;;;;;23.13;60.25;99969.90;1641082;84;21040;-59
2022/08/24 01:03:33;;;;;;;7.03;5.58;;;;;;;23.16;59.70;99975.00;1632469;86;20988;-59
2022/08/24 01:06:00;;;;;;;;;;;;;;;23.16;59.70;99975.00;1632780;86;21515;-59
2022/08/24 01:08:27;;;;;;;6.75;5.33;;;;;;;23.12;59.79;99971.74;1624611;86;21971;-59
2022/08/24 01:11:07;;;;;;;6.47;5.22;;;;;;;23.12;59.30;99977.61;1627938;86;21619;-59
2022/08/24 01:13:36;;;;;;;7.45;5.58;;;;;;;23.10;59.00;99978.24;1634649;86;21587;-58
2022/08/24 01:16:05;;;;;;;15.30;5.60;;;;;;;23.04;59.32;99978.80;1635770;85;21579;-58
2022/08/24 01:18:50;;;;;;;7.85;5.25;;;;;;;23.00;59.62;99975.98;1631176;86;21452;-58
2022/08/24 01:21:31;;;;;;;12.25;5.20;;;;;;;22.99;59.34;99978.33;1639410;86;22079;-58
2022/08/24 01:24:01;;;;;;;8.78;5.40;;;;;;;23.01;58.74;99975.01;1636180;86;21069;-58
2022/08/24 01:26:39;;;;;;;14.23;4.87;;;;;;;22.94;58.43;99977.38;1631541;86;21543;-58
2022/08/24 01:29:09;;;;;;;5.87;5.20;;;;;;;22.94;58.43;99977.38;1627562;86;21603;-58
2022/08/24 01:31:36;;;;;;;9.35;5.80;;;;;;;23.02;57.47;99979.38;1616023;88;21587;-59
2022/08/24 01:34:03;;;;;;;11.57;5.17;;;;;;;23.02;57.47;99979.38;1617927;88;21556;-59
2022/08/24 01:36:36;;;;;;;6.42;5.00;;;;;;;23.02;57.36;99983.39;1675174;83;21490;-59
2022/08/24 01:39:09;;;;;;;9.75;5.17;;;;;;;22.97;57.76;99985.16;1667885;84;21492;-59
2022/08/24 01:41:35;;;;;;;10.32;5.78;;;;;;;22.94;57.65;99990.78;1668048;83;21491;-60
2022/08/24 01:44:02;;;;;;;9.27;5.40;;;;;;;22.92;57.55;99991.41;1671490;84;21649;-58
2022/08/24 01:46:29;;;;;;;8.48;5.00;;;;;;;22.89;57.83;99997.91;1657514;83;22039;-58
2022/08/24 01:48:57;;;;;;;10.65;4.87;;;;;;;22.87;57.54;99993.18;1676366;84;21639;-59
2022/08/24 01:51:27;;;;;;;7.15;5.10;;;;;;;22.90;56.79;99991.55;1660148;85;27150;-58
2022/08/24 01:53:54;;;;;;;6.50;5.50;;;;;;;22.89;56.09;99996.56;1672015;83;21096;-59
2022/08/24 01:56:20;;;;;;;9.08;5.75;;;;;;;22.89;56.09;99996.56;1678159;83;21428;-59
2022/08/24 01:58:48;;;;;;;7.55;5.03;;;;;;;22.94;55.50;100000.16;1671880;84;21920;-58
2022/08/24 02:01:16;;;;;;;7.30;5.50;;;;;;;22.98;55.80;100002.08;1663577;85;21555;-58
2022/08/24 02:03:43;;;;;;;8.60;5.17;;;;;;;22.99;54.98;100005.14;1675596;83;21514;-60
2022/08/24 02:06:10;;;;;;;7.78;5.15;;;;;;;22.96;54.83;100007.58;1668748;85;21511;-59
2022/08/24 02:08:37;;;;;;;9.18;5.28;;;;;;;22.97;54.57;100009.29;1663521;84;21506;-59
2022/08/24 02:11:07;;;;;;;9.98;4.62;;;;;;;22.94;54.75;100007.73;1676038;83;21503;-59
2022/08/24 02:13:36;;;;;;;8.85;5.47;;;;;;;22.93;54.43;100000.67;1672862;84;21563;-58
2022/08/24 02:16:03;;;;;;;12.15;5.20;;;;;;;22.89;54.41;100005.95;1660710;83;21554;-59
2022/08/24 02:18:33;;;;;;;7.33;4.95;;;;;;;22.85;54.81;100002.32;1631601;85;21579;-58
2022/08/24 02:21:00;;;;;;;7.12;5.22;;;;;;;22.82;54.13;99992.73;1613447;86;21504;-59
2022/08/24 02:23:27;;;;;;;9.75;4.83;;;;;;;22.81;53.87;99995.54;1621044;86;21873;-58
2022/08/24 02:25:55;;;;;;;10.28;5.15;;;;;;;22.82;53.37;99999.43;1663775;85;21562;-58
2022/08/24 02:28:21;;;;;;;8.40;5.30;;;;;;;22.82;53.16;99997.25;1631837;85;21021;-59
2022/08/24 02:30:48;;;;;;;8.25;5.50;;;;;;;22.78;53.23;99992.65;1614036;86;21095;-59
2022/08/24 02:33:15;;;;;;;11.03;5.03;;;;;;;22.79;53.30;99996.17;1650219;84;21045;-59
2022/08/24 02:35:41;;;;;;;9.20;5.37;;;;;;;22.81;52.67;99996.88;1637431;85;21802;-58
2022/08/24 02:38:09;;;;;;;7.17;5.00;;;;;;;22.79;52.47;100001.03;1669090;83;21033;-58
2022/08/24 02:40:36;;;;;;;5.72;5.12;;;;;;;22.77;52.21;99999.48;1677805;83;21533;-60
2022/08/24 02:43:04;;;;;;;9.45;4.72;;;;;;;22.78;52.16;100006.05;1660768;83;21128;-59
2022/08/24 02:45:39;;;;;;;8.58;5.03;;;;;;;22.73;52.32;100000.24;1639791;85;21451;-59
2022/08/24 02:48:05;;;;;;;5.62;4.83;;;;;;;22.72;52.18;100000.74;1661594;83;22001;-60
2022/08/24 02:50:32;;;;;;;11.57;5.15;;;;;;;22.72;52.18;100000.74;1673683;83;21601;-59
2022/08/24 02:53:00;;;;;;;6.83;4.92;;;;;;;22.66;52.30;99995.06;1659149;83;21518;-59
2022/08/24 02:55:26;;;;;;;;;;;;;;;22.67;52.00;99999.45;1662491;83;21534;-59
2022/08/24 02:57:53;;;;;;;9.80;4.62;;;;;;;22.60;52.09;99998.28;1666560;83;20445;-59
2022/08/24 03:00:20;;;;;;;8.28;5.12;;;;;;;22.60;52.09;99998.28;1657318;83;21850;-59
2022/08/24 03:02:51;;;;;;;8.05;5.28;;;;;;;22.54;52.39;100001.84;1667242;84;21423;-59
2022/08/24 03:05:18;;;;;;;9.58;5.15;;;;;;;22.54;52.39;100001.84;1658484;83;21541;-59
2022/08/24 03:07:45;;;;;;;5.58;4.92;;;;;;;22.51;52.55;100005.31;1663050;83;21628;-59
2022/08/24 03:10:12;;;;;;;8.60;5.20;;;;;;;22.56;52.18;100009.76;1676870;83;20958;-59
2022/08/24 03:12:39;;;;;;;9.58;5.28;;;;;;;22.58;51.83;100009.63;1632180;86;21932;-59
2022/08/24 03:15:09;;;;;;;8.35;5.08;;;;;;;22.61;51.35;100015.58;1667412;83;21113;-58
2022/08/24 03:17:36;;;;;;;6.95;4.67;;;;;;;22.63;51.42;100014.11;1637368;85;21557;-60
2022/08/24 03:20:04;;;;;;;5.97;4.72;;;;;;;22.62;51.45;100016.41;1664260;85;21045;-58
2022/08/24 03:22:32;;;;;;;9.73;5.35;;;;;;;22.57;51.86;100022.19;1670208;85;21486;-58
2022/08/24 03:24:58;;;;;;;6.60;4.45;;;;;;;22.62;51.55;100020.44;1667273;83;21882;-58
2022/08/24 03:27:25;;;;;;;8.07;5.20;;;;;;;22.64;51.15;100019.80;1668648;83;21569;-58
2022/08/24 03:29:52;;;;;;;6.67;5.00;;;;;;;22.59;51.07;100018.05;1665118;83;21464;-59
2022/08/24 03:32:18;;;;;;;7.72;4.90;;;;;;;22.57;51.33;100019.52;1670074;83;21080;-59
2022/08/24 03:34:45;;;;;;;7.78;4.72;;;;;;;22.59;51.79;100022.06;1673137;83;21443;-59
2022/08/24 03:37:11;;;;;;;8.20;5.17;;;;;;;22.59;51.63;100018.05;1673322;85;21943;-58
2022/08/24 03:39:39;;;;;;;7.20;4.97;;;;;;;22.53;51.52;100020.77;1667080;83;21579;-59
2022/08/24 03:42:06;;;;;;;5.65;4.35;;;;;;;22.54;51.34;100018.42;1669067;85;21620;-59
2022/08/24 03:44:32;;;;;;;7.10;4.67;;;;;;;22.59;51.14;100022.06;1675119;84;20980;-58
2022/08/24 03:46:59;;;;;;;8.48;4.72;;;;;;;22.63;50.87;100021.64;1666730;83;21061;-59
2022/08/24 03:49:27;;;;;;;10.50;4.80;;;;;;;22.60;50.96;100024.58;1670807;83;21755;-59
2022/08/24 03:51:53;;;;;;;12.98;5.30;;;;;;;22.62;50.81;100033.83;1670925;83;21027;-59
2022/08/24 03:54:22;;;;;;;9.48;4.75;;;;;;;22.59;50.45;100039.48;1674147;85;21461;-59
2022/08/24 03:56:48;;;;;;;9.30;5.17;;;;;;;22.61;50.48;100034.83;1685251;83;21518;-59
2022/08/24 03:59:15;;;;;;;11.90;4.83;;;;;;;22.59;50.63;100027.42;1672602;83;21531;-60
2022/08/24 04:01:42;;;;;;;6.20;5.03;;;;;;;22.67;50.47;100027.59;1668056;83;21976;-59
2022/08/24 04:04:08;;;;;;;8.13;4.78;;;;;;;22.73;51.00;100033.28;1673487;83;21665;-63
2022/08/24 04:06:36;;;;;;;6.95;4.83;;;;;;;22.73;51.00;100033.28;1674134;83;21011;-60
2022/08/24 04:09:04;;;;;;;5.62;4.40;;;;;;;22.73;50.68;100035.08;1670887;85;21014;-60
2022/08/24 04:11:33;;;;;;;6.40;4.37;;;;;;;22.69;50.71;100033.66;1666929;83;21470;-60
2022/08/24 04:14:00;;;;;;;5.50;4.20;;;;;;;22.71;50.56;100031.69;1673621;83;27436;-59
2022/08/24 04:16:27;;;;;;;6.47;4.85;;;;;;;22.79;50.31;100025.16;1667865;83;21543;-60
2022/08/24 04:19:13;;;;;;;5.17;3.92;;;;;;;22.88;50.36;100029.70;1671509;85;21603;-59
2022/08/24 04:21:40;;;;;;;7.83;4.10;;;;;;;22.89;50.23;100026.56;1669849;83;21986;-60
2022/08/24 04:24:08;;;;;;;12.00;4.50;;;;;;;22.84;50.32;100024.27;1670313;83;21613;-60
2022/08/24 04:26:36;;;;;;;5.85;4.50;;;;;;;22.91;49.31;100029.95;1670303;83;21796;-60
2022/08/24 04:29:04;;;;;;;11.55;4.80;;;;;;;22.91;49.31;100029.95;1662786;83;21428;-60
2022/08/24 04:31:32;;;;;;;7.87;4.25;;;;;;;22.91;49.27;100025.42;1672774;83;21513;-60
2022/08/24 04:33:59;;;;;;;;;;;;;;;22.99;49.15;100030.11;1634240;85;21623;-60
2022/08/24 04:36:25;;;;;;;10.18;4.65;;;;;;;22.99;48.29;100035.47;1677303;85;20453;-60
2022/08/24 04:38:53;;;;;;;7.08;5.00;;;;;;;23.04;48.69;100029.25;1678532;83;21786;-60
2022/08/24 04:41:39;;;;;;;11.65;4.37;;;;;;;23.09;48.87;100033.72;1669576;83;21530;-58
2022/08/24 04:44:06;;;;;;;6.03;4.20;;;;;;;23.15;49.17;100029.64;1667367;83;21507;-59
2022/08/24 04:46:34;;;;;;;9.78;4.03;;;;;;;23.15;49.17;100029.64;1676636;83;21578;-59
2022/08/24 04:49:00;;;;;;;10.98;3.98;;;;;;;23.18;48.68;100029.34;1675894;83;21423;-59
2022/08/24 04:51:27;;;;;;;9.20;4.25;;;;;;;23.20;48.56;100031.89;1642341;85;22108;-59
2022/08/24 04:53:54;;;;;;;9.88;4.87;;;;;;;23.26;48.76;100025.50;1641059;85;21619;-60
2022/08/24 04:56:22;;;;;;;;;;;;;;;23.26;48.76;100025.50;1654976;85;21539;-60
2022/08/24 04:58:53;;;;;;;9.50;3.70;;;;;;;23.37;48.46;100025.84;1677702;83;20523;-60
2022/08/24 05:01:23;;;;;;;8.68;3.58;;;;;;;23.39;48.42;100021.19;1674312;83;21567;-60
2022/08/24 05:03:52;;;;;;;7.65;4.17;;;;;;;23.49;47.77;100015.86;1666006;85;21889;-60
2022/08/24 05:06:24;;;;;;;4.65;3.77;;;;;;;23.56;47.22;100021.00;1674847;83;22423;-60
2022/08/24 05:08:51;;;;;;;7.83;3.77;;;;;;;23.62;47.19;100016.91;1635490;85;21573;-60
2022/08/24 05:11:21;;;;;;;7.08;3.83;;;;;;;23.76;47.27;100024.55;1669688;83;21536;-60
2022/08/24 05:13:50;;;;;;;;;;;;;;;23.76;47.27;100024.55;1674715;83;21636;-60
2022/08/24 05:16:18;;;;;;;11.28;4.17;;;;;;;23.79;46.92;100024.78;1662768;83;21160;-61
2022/08/24 05:18:45;;;;;;;5.90;3.90;;;;;;;23.89;46.88;100024.30;1673301;83;21563;-59
2022/08/24 05:21:18;;;;;;;8.15;4.08;;;;;;;23.99;46.63;100020.26;1684388;83;21493;-59
2022/08/24 05:23:45;;;;;;;7.72;3.87;;;;;;;24.03;46.75;100024.34;1668934;83;21542;-59
2022/08/24 05:26:23;;;;;;;9.83;4.17;;;;;;;24.06;46.73;100024.07;1674208;83;21503;-59
2022/08/24 05:28:51;;;;;;;6.90;3.70;;;;;;;24.12;46.78;100026.67;1670227;83;21770;-60
2022/08/24 05:31:21;;;;;;;7.53;3.70;;;;;;;24.20;46.40;100022.77;1673738;83;21736;-59
2022/08/24 05:33:49;;;;;;;7.72;3.83;;;;;;;24.27;46.29;100020.70;1672934;83;21738;-60
2022/08/24 05:36:21;;;;;;;7.78;3.72;;;;;;;24.34;46.18;100020.14;1665823;85;21551;-59
2022/08/24 05:38:48;;;;;;;4.47;4.08;;;;;;;24.49;46.65;100018.67;1670378;85;21014;-60
2022/08/24 05:41:16;;;;;;;4.72;3.58;;;;;;;24.49;46.65;100018.67;1675436;83;27011;-60
2022/08/24 05:43:43;;;;;;;7.75;3.62;;;;;;;24.56;46.06;100021.13;1669530;85;21491;-60
2022/08/24 05:46:10;;;;;;;9.40;3.97;;;;;;;24.58;46.21;100016.96;1668586;83;21524;-61
2022/08/24 05:48:37;;;;;;;8.70;3.85;;;;;;;24.66;45.48;100019.27;1671700;83;21483;-60
2022/08/24 05:51:06;;;;;;;10.08;3.90;;;;;;;24.83;44.91;100018.99;1675318;83;21536;-60
2022/08/24 05:53:37;;;;;;;5.92;3.72;;;;;;;24.97;44.19;100018.98;1674210;83;21823;-62
2022/08/24 05:56:06;;;;;;;7.25;4.00;;;;;;;25.14;43.29;100021.37;1675886;83;21542;-60
2022/08/24 05:58:34;;;;;;;4.17;3.72;;;;;;;25.14;43.29;100021.37;1679098;83;21443;-60
2022/08/24 06:01:09;;;;;;;5.17;3.50;;;;;;;25.21;42.85;100021.62;1665863;83;21533;-61
2022/08/24 06:03:38;;;;;;;6.28;3.72;;;;;;;25.29;42.70;100024.42;1676846;83;21526;-60
2022/08/24 06:07:55;;;;;;;5.53;3.25;;;;;;;24.91;43.91;100029.51;1787398;78;22835;-58
2022/08/24 06:10:23;;;;;;;8.00;3.60;;;;;;;25.60;41.78;100027.63;1758845;78;21514;-59
2022/08/24 06:12:50;;;;;;;9.88;3.77;;;;;;;25.73;41.84;100033.10;1770266;80;21550;-59
2022/08/24 06:15:18;;;;;;;7.28;4.05;;;;;;;25.79;42.01;100036.55;1766816;80;21490;-60
2022/08/24 06:17:45;;;;;;;8.13;3.95;;;;;;;25.84;42.04;100039.60;1764343;80;21021;-67
2022/08/24 06:20:12;;;;;;;8.48;4.72;;;;;;;25.92;41.17;100037.51;1753973;80;21037;-61
2022/08/24 06:22:39;;;;;;;7.10;3.40;;;;;;;25.93;40.90;100037.36;1764795;80;21478;-61
2022/08/24 06:27:53;;;;;;;10.63;3.67;;;;;;;26.00;40.85;100047.86;1766064;80;21548;-60
2022/08/24 06:30:20;;;;;;;8.27;3.63;;;;;;;26.09;40.42;100047.44;1764618;80;21581;-59
2022/08/24 06:33:00;;;;;;;6.58;3.50;;;;;;;26.16;40.22;100046.30;1755588;80;21606;-60
2022/08/24 06:35:29;;;;;;;8.45;3.92;;;;;;;26.26;40.10;100044.84;1752297;80;21510;-60
2022/08/24 06:37:56;;;;;;;6.83;3.92;;;;;;;26.31;39.76;100051.45;1764295;80;22145;-59
2022/08/24 06:40:24;;;;;;;;;;;;;;;26.37;40.10;100050.84;1770643;80;21474;-59
2022/08/24 06:42:51;;;;;;;6.35;3.70;;;;;;;26.47;39.73;100055.30;1766336;80;20467;-59
2022/08/24 06:45:23;;;;;;;6.50;3.95;;;;;;;26.52;39.97;100054.30;1726513;81;21017;-59
2022/08/24 06:47:50;;;;;;;4.35;3.60;;;;;;;26.55;39.49;100049.94;1732180;81;21498;-60
2022/08/24 06:50:18;;;;;;;5.35;3.70;;;;;;;26.60;39.56;100049.00;1712758;81;21863;-60
2022/08/24 06:52:45;;;;;;;8.85;3.95;;;;;;;26.68;39.41;100048.20;1695566;82;28812;-60
2022/08/24 06:55:12;;;;;;;10.98;3.98;;;;;;;26.77;39.56;100040.50;1718985;82;21544;-60
2022/08/24 06:57:39;;;;;;;13.55;3.87;;;;;;;26.86;39.52;100045.41;1709433;82;21585;-60
2022/08/24 07:00:08;;;;;;;7.17;3.92;;;;;;;26.94;39.68;100048.16;1708512;82;21593;-60
2022/08/24 07:02:35;;;;;;;6.90;4.12;;;;;;;27.05;39.29;100049.70;1706221;82;21817;-60
2022/08/24 07:05:03;;;;;;;6.60;3.95;;;;;;;27.09;38.96;100049.75;1703687;82;21430;-59
2022/08/24 07:07:48;;;;;;;5.35;3.58;;;;;;;27.16;39.01;100049.41;1700538;82;21578;-60
2022/08/24 07:10:15;;;;;;;7.33;3.73;;;;;;;27.23;38.55;100052.31;1698240;83;21077;-59
2022/08/24 07:12:42;;;;;;;12.50;4.08;;;;;;;27.28;38.32;100051.36;1697331;83;21431;-58
2022/08/24 07:15:09;;;;;;;7.30;4.30;;;;;;;27.37;37.99;100055.27;1692557;83;21578;-60
2022/08/24 07:17:36;;;;;;;10.03;3.90;;;;;;;27.46;37.86;100046.66;1702514;83;22003;-59
2022/08/24 07:20:04;;;;;;;8.93;4.00;;;;;;;27.54;37.89;100053.45;1689748;83;21459;-59
2022/08/24 07:22:35;;;;;;;14.15;4.47;;;;;;;27.61;37.92;100066.28;1684223;83;21486;-59
2022/08/24 07:25:02;;;;;;;7.83;3.98;;;;;;;27.70;37.81;100060.72;1688076;83;21624;-59
2022/08/24 07:27:29;;;;;;;7.55;3.65;;;;;;;27.76;37.55;100070.02;1695049;83;21788;-60
2022/08/24 07:29:56;;;;;;;13.98;4.15;;;;;;;27.75;37.21;100067.82;1695222;83;21563;-62
2022/08/24 07:32:23;;;;;;;11.22;4.58;;;;;;;27.83;37.55;100070.20;1694248;83;21522;-61
2022/08/24 07:34:51;;;;;;;9.15;4.10;;;;;;;27.95;37.48;100071.09;1737557;80;21586;-61
2022/08/24 07:37:18;;;;;;;16.30;4.20;;;;;;;28.03;37.41;100074.78;1762541;80;21519;-63
2022/08/24 07:39:47;;;;;;;14.65;4.58;;;;;;;28.10;37.25;100071.75;1753362;80;21856;-60
2022/08/24 07:42:13;;;;;;;11.38;4.53;;;;;;;28.20;37.21;100072.44;1756395;80;21587;-61
2022/08/24 07:44:40;;;;;;;14.07;4.67;;;;;;;28.30;37.43;100061.45;1691450;82;21448;-63
2022/08/24 07:47:07;;;;;;;14.98;4.78;;;;;;;28.43;36.91;100053.66;1762076;80;21503;-61
2022/08/24 07:49:34;;;;;;;20.43;4.55;;;;;;;28.58;36.20;100055.18;1754644;80;21565;-61
2022/08/24 07:52:01;;;;;;;19.15;4.97;;;;;;;28.62;36.16;100054.33;1760368;80;21943;-62
2022/08/24 07:54:28;;;;;;;18.37;4.97;;;;;;;28.66;36.10;100061.08;1740663;80;21045;-60
2022/08/24 07:56:55;;;;;;;16.60;4.22;;;;;;;28.69;36.22;100053.98;1719448;80;21498;-60
2022/08/24 07:59:22;;;;;;;19.50;5.25;;;;;;;28.76;36.36;100064.93;1757049;80;21557;-62
2022/08/24 08:01:51;;;;;;;19.77;4.67;;;;;;;28.86;36.14;100059.67;1737755;80;21022;-61
2022/08/24 08:04:23;;;;;;;20.88;4.92;;;;;;;28.93;35.63;100060.66;1754509;80;21833;-61
2022/08/24 08:06:49;;;;;;;22.87;6.20;;;;;;;28.99;35.70;100063.66;1756582;80;21006;-61
2022/08/24 08:09:16;;;;;;;26.42;5.45;;;;;;;29.08;35.40;100059.91;1760064;80;21588;-61
2022/08/24 08:11:44;;;;;;;25.12;4.92;;;;;;;29.17;34.98;100059.41;1765724;80;21443;-60
2022/08/24 08:14:12;;;;;;;19.20;4.62;;;;;;;29.25;35.00;100060.70;1755067;80;21547;-60
2022/08/24 08:16:40;;;;;;;16.45;4.80;;;;;;;29.35;34.97;100061.34;1747632;80;21896;-60
2022/08/24 08:19:06;;;;;;;;;;;;;;;29.50;35.13;100058.20;1764002;80;21545;-60
2022/08/24 08:24:19;;;;;;;22.93;4.70;;;;;;;29.76;34.26;100062.97;1749989;80;21509;-60
2022/08/24 08:26:53;;;;;;;21.33;5.05;;;;;;;29.84;33.90;100062.93;1756005;80;21002;-60
2022/08/24 08:29:41;;;;;;;27.65;4.87;;;;;;;29.94;34.17;100063.52;1678417;83;20975;-62
2022/08/24 08:32:10;;;;;;;24.87;5.65;;;;;;;30.06;34.04;100061.20;1652146;84;22062;-61
2022/08/24 08:34:38;;;;;;;21.95;6.17;;;;;;;30.18;33.39;100058.41;1647056;84;21672;-61
2022/08/24 08:37:05;;;;;;;22.05;5.65;;;;;;;30.24;33.24;100060.38;1633593;86;21474;-61
2022/08/24 08:39:33;;;;;;;23.70;5.10;;;;;;;30.36;33.17;100055.89;1654987;86;21441;-61
2022/08/24 08:42:13;;;;;;;25.43;5.12;;;;;;;30.48;32.93;100063.92;1644274;84;21910;-61
2022/08/24 08:45:01;;;;;;;26.70;4.53;;;;;;;30.55;32.51;100054.51;1646388;84;21584;-60
2022/08/24 08:48:10;;;;;;;19.92;5.30;;;;;;;30.64;31.45;100055.59;1628612;87;21479;-61
2022/08/24 08:51:21;;;;;;;15.05;5.60;;;;;;;30.72;31.44;100054.66;1656946;85;21648;-62
2022/08/24 08:54:28;;;;;;;16.60;5.28;;;;;;;30.84;31.13;100054.52;1626960;86;21490;-61
2022/08/24 08:57:17;;;;;;;14.63;4.58;;;;;;;30.98;31.08;100053.38;1627925;86;21860;-61
2022/08/24 08:59:59;;;;;;;21.00;4.92;;;;;;;31.11;30.27;100051.34;1638180;86;21442;-60
2022/08/24 09:02:31;;;;;;;20.43;4.60;;;;;;;31.17;30.31;100045.16;1652638;84;21663;-61
2022/08/24 09:05:35;;;;;;;18.87;4.92;;;;;;;31.24;29.96;100046.08;1650913;86;21525;-61
2022/08/24 09:08:25;;;;;;;21.42;5.10;;;;;;;31.39;30.10;100041.45;1652126;84;21585;-61
2022/08/24 09:11:18;;;;;;;16.35;4.53;;;;;;;31.53;30.26;100041.62;1649041;84;21808;-62
2022/08/24 09:14:12;;;;;;;19.90;4.42;;;;;;;31.62;30.53;100039.94;1649790;86;21541;-61
2022/08/24 09:17:05;;;;;;;11.28;4.10;;;;;;;31.72;29.85;100041.50;1654620;84;21442;-61
2022/08/24 09:19:55;;;;;;;16.82;4.42;;;;;;;31.89;29.41;100036.14;1649114;84;21592;-66
2022/08/24 09:22:22;;;;;;;14.05;4.05;;;;;;;32.03;29.29;100034.93;1646093;84;20965;-60
2022/08/24 09:24:56;;;;;;;19.42;4.47;;;;;;;32.16;28.92;100039.11;1644368;86;21421;-60
2022/08/24 09:27:58;;;;;;;18.12;4.37;;;;;;;32.23;28.53;100036.43;1643674;84;21543;-62
2022/08/24 09:30:28;;;;;;;11.90;4.20;;;;;;;32.31;28.39;100043.94;1672847;83;21624;-63
2022/08/24 09:33:08;;;;;;;17.45;3.98;;;;;;;32.36;28.29;100044.69;1688345;83;21640;-59
2022/08/24 09:36:14;;;;;;;14.40;4.37;;;;;;;32.43;27.94;100037.41;1676849;83;21609;-60
2022/08/24 09:39:10;;;;;;;10.63;3.33;;;;;;;32.52;27.97;100043.03;1682720;83;21798;-59
2022/08/24 09:41:58;;;;;;;13.50;4.20;;;;;;;32.58;27.74;100030.53;1684789;83;21588;-59
2022/08/24 09:45:12;;;;;;;15.35;4.72;;;;;;;32.72;27.64;100033.66;1682835;84;22233;-60
2022/08/24 09:48:28;;;;;;;9.48;3.70;;;;;;;32.78;27.69;100038.30;1681076;83;21578;-60
2022/08/24 09:51:32;;;;;;;13.90;3.98;;;;;;;32.84;26.98;100040.73;1686493;83;21602;-61
2022/08/24 09:54:25;;;;;;;18.42;4.80;;;;;;;32.91;26.83;100038.89;1684803;83;21779;-61
2022/08/24 09:57:03;;;;;;;14.50;3.80;;;;;;;33.05;26.52;100032.14;1653410;84;21577;-60
2022/08/24 10:00:06;;;;;;;11.80;4.00;;;;;;;33.10;26.61;100033.20;1682440;83;21605;-61
2022/08/24 10:02:58;;;;;;;7.78;3.37;;;;;;;33.12;26.26;100028.42;1682798;83;21432;-60
2022/08/24 10:05:53;;;;;;;11.15;3.05;;;;;;;33.16;25.83;100028.33;1684221;83;21473;-60
2022/08/24 10:08:51;;;;;;;16.70;3.70;;;;;;;33.24;25.76;100026.47;1683874;83;21763;-60
2022/08/24 10:12:03;;;;;;;13.03;3.85;;;;;;;33.34;26.00;100030.50;1683835;83;21115;-60
2022/08/24 10:14:58;;;;;;;16.00;3.77;;;;;;;33.40;26.11;100017.08;1682959;83;21597;-59
2022/08/24 10:18:01;;;;;;;10.97;3.37;;;;;;;33.54;25.59;100021.52;1682907;83;20999;-63
2022/08/24 10:20:54;;;;;;;10.98;3.80;;;;;;;33.57;25.53;100026.56;1683120;84;21498;-62
2022/08/24 10:24:02;;;;;;;17.00;3.42;;;;;;;33.59;25.59;100027.20;1680920;83;21796;-66
2022/08/24 10:27:00;;;;;;;10.88;2.80;;;;;;;33.64;25.19;100026.06;1643973;83;21497;-63
2022/08/24 10:29:52;;;;;;;20.75;3.52;;;;;;;33.66;25.76;100019.91;1685412;82;21579;-60
2022/08/24 10:32:46;;;;;;;17.70;3.87;;;;;;;33.75;25.58;100026.81;1698407;82;21530;-60
2022/08/24 10:35:16;;;;;;;11.05;3.42;;;;;;;33.82;25.08;100027.36;1697241;82;21519;-61
2022/08/24 10:41:18;;;;;;;12.73;3.35;;;;;;;33.89;25.12;100032.30;1629302;87;21540;-61
2022/08/24 10:44:27;;;;;;;16.87;4.08;;;;;;;33.96;25.18;100024.94;1668739;84;21465;-62
2022/08/24 10:47:04;;;;;;;10.78;3.12;;;;;;;34.04;24.82;100020.66;1656055;84;21726;-62
2022/08/24 10:49:49;;;;;;;10.23;3.62;;;;;;;34.07;25.16;100018.85;1664892;84;21490;-61
2022/08/24 10:52:42;;;;;;;15.45;3.72;;;;;;;34.18;25.29;100022.88;1659998;84;21809;-61
2022/08/24 10:55:18;;;;;;;10.58;3.37;;;;;;;34.28;24.53;100019.20;1658222;85;21597;-61
2022/08/24 10:58:09;;;;;;;;;;;;;;;34.33;24.73;100022.12;1662772;84;21613;-62
2022/08/24 11:00:36;;;;;;;20.97;3.17;;;;;;;34.37;24.72;100012.98;1655783;85;20501;-62
2022/08/24 11:03:20;;;;;;;;;;;;;;;34.40;24.88;100013.10;1669242;85;21501;-62
2022/08/24 11:05:51;;;;;;;12.30;3.25;;;;;;;34.45;24.53;100005.09;1662627;85;22000;-62
2022/08/24 11:08:29;;;;;;;12.60;3.22;;;;;;;34.50;24.94;100011.59;1667272;85;21522;-61
2022/08/24 11:11:12;;;;;;;7.70;2.92;;;;;;;34.57;24.53;100011.59;1660453;85;21548;-62
2022/08/24 11:13:57;;;;;;;7.05;3.77;;;;;;;34.65;24.50;100018.70;1655647;84;21583;-62
2022/08/24 11:16:32;;;;;;;15.32;3.37;;;;;;;34.66;24.56;100013.53;1656652;84;21592;-61
2022/08/24 11:19:01;;;;;;;8.73;2.75;;;;;;;34.68;24.31;100002.77;1661998;84;21839;-60
2022/08/24 11:21:51;;;;;;;10.95;3.40;;;;;;;34.73;24.36;100008.93;1661903;84;21135;-61
2022/08/24 11:24:25;;;;;;;11.33;3.15;;;;;;;34.81;24.45;100005.12;1662636;84;21636;-62
2022/08/24 11:27:00;;;;;;;13.90;2.95;;;;;;;34.87;24.27;100006.47;1666775;84;21805;-61
2022/08/24 11:29:50;;;;;;;11.30;3.08;;;;;;;34.96;24.20;100008.95;1658341;84;21579;-61
2022/08/24 11:32:41;;;;;;;13.88;3.00;;;;;;;34.99;23.79;100003.89;1660273;84;22121;-61
2022/08/24 11:35:22;;;;;;;11.78;2.98;;;;;;;35.04;23.77;100006.82;1644209;86;21573;-62
2022/08/24 11:37:53;;;;;;;16.23;3.52;;;;;;;35.08;23.46;100000.40;1656777;84;21132;-63
2022/08/24 11:40:26;;;;;;;9.23;2.90;;;;;;;35.14;23.46;100000.88;1651774;84;21513;-62
2022/08/24 11:43:18;;;;;;;10.15;2.98;;;;;;;35.19;23.53;99995.64;1662332;84;21442;-61
2022/08/24 11:46:12;;;;;;;10.00;3.20;;;;;;;35.15;23.57;99996.25;1657948;84;21498;-63
2022/08/24 11:49:09;;;;;;;6.37;2.33;;;;;;;35.16;23.39;100001.50;1644162;84;21529;-61
2022/08/24 11:51:56;;;;;;;8.60;2.70;;;;;;;35.21;22.98;99988.59;1654347;85;21053;-65
2022/08/24 11:54:57;;;;;;;12.70;3.00;;;;;;;35.25;23.20;99992.02;1666425;85;21586;-59
2022/08/24 11:57:47;;;;;;;6.30;2.35;;;;;;;35.26;23.72;99984.16;1659203;85;21443;-67
2022/08/24 12:00:18;;;;;;;10.98;3.00;;;;;;;35.26;23.72;99982.78;1648345;85;21764;-68
2022/08/24 12:03:03;;;;;;;16.90;2.87;;;;;;;35.35;23.67;99983.34;1655347;85;21451;-70
2022/08/24 12:05:44;;;;;;;7.97;2.67;;;;;;;35.42;23.40;99975.94;1652966;84;21683;-66
2022/08/24 12:08:35;;;;;;;12.55;2.83;;;;;;;35.35;23.31;99971.04;1653271;84;21510;-65